This is the latest recevied weather packets stored in our database for station/object LZ2SMX-2. If no packets are shown the sender has not sent any weather packets the latest 10 day(s).
| Time | Temp. | Humidity | Pressure | Rain* | Wind** | Luminosity | Snow |
|---|---|---|---|---|---|---|---|
| 1777648392 | 8.89° C | 75% | 998 hPa | 0 mm | - | - | - |
| 1777647192 | 8.89° C | 77% | 997 hPa | 0 mm | - | - | - |
| 1777645992 | 8.89° C | 76% | 998 hPa | 0 mm | - | - | - |
| 1777644793 | 8.89° C | 74% | 997 hPa | 0 mm | - | - | - |
| 1777643592 | 8.89° C | 73% | 998 hPa | 0 mm | - | - | - |
| 1777642391 | 8.89° C | 76% | 997 hPa | 0 mm | - | - | - |
| 1777641191 | 7.78° C | 75% | 998 hPa | 0 mm | - | - | - |
| 1777639991 | 7.78° C | 74% | 998 hPa | 0 mm | - | - | - |
| 1777638792 | 8.89° C | 70% | 998 hPa | 0 mm | - | - | - |
| 1777637591 | 8.89° C | 67% | 998 hPa | 0 mm | - | - | - |
| 1777636391 | 8.89° C | 66% | 997 hPa | 0 mm | - | - | - |
| 1777635194 | 8.89° C | 67% | 998 hPa | 0 mm | - | - | - |
| 1777633991 | 10° C | 68% | 998 hPa | 0 mm | - | - | - |
| 1777632792 | 10° C | 64% | 998 hPa | 0 mm | - | - | - |
| 1777631592 | 10° C | 65% | 998 hPa | 0 mm | - | - | - |
| 1777630392 | 10° C | 66% | 997 hPa | 0 mm | - | - | - |
| 1777629191 | 10° C | 66% | 997 hPa | 0 mm | - | - | - |
| 1777627991 | 12.78° C | 62% | 997 hPa | 0 mm | - | - | - |
| 1777626792 | 13.89° C | 65% | 997 hPa | 0 mm | - | - | - |
| 1777625592 | 12.78° C | 65% | 997 hPa | 0 mm | - | - | - |
| 1777624391 | 10.56° C | 71% | 998 hPa | 0 mm | - | - | - |
| 1777623192 | 8.89° C | 78% | 997 hPa | 0 mm | - | - | - |
| 1777621991 | 8.89° C | 77% | 997 hPa | 0 mm | - | - | - |
| 1777620792 | 10° C | 79% | 997 hPa | 0 mm | - | - | - |
| 1777619592 | 7.78° C | 84% | 998 hPa | 0 mm | - | - | - |
* Rain latest hour (hover to see other rain measurements)
** Current wind speed in m/s (hover to see current wind gust speed)